Time,TemperatureF,DewpointF,PressureIn,WindDirection,WindDirectionDegrees,WindSpeedMPH,WindSpeedGustMPH,Humidity,HourlyPrecipIn,Conditions,Clouds,dailyrainin,SoftwareType,DateUTC
2013-03-12 00:03:00,29.1,11.9,29.85,WNW,292,6.3,15.9,48,0.00,,---,0.00,VWS V14.01,2013-03-12 06:03:00,
2013-03-12 00:18:00,28.8,11.6,29.85,WNW,292,7.4,7.4,48,0.00,,---,0.00,VWS V14.01,2013-03-12 06:18:00,
2013-03-12 00:33:00,28.6,11.4,29.85,NNE,22,4.3,7.4,48,0.00,,---,0.00,VWS V14.01,2013-03-12 06:33:00,
2013-03-12 00:48:00,28.4,11.2,29.85,NNE,22,9.8,9.8,48,0.00,,---,0.00,VWS V14.01,2013-03-12 06:48:00,
2013-03-12 01:03:00,28.0,10.9,29.85,WNW,292,6.0,9.8,48,0.00,,---,0.00,VWS V14.01,2013-03-12 07:03:00,
2013-03-12 01:18:00,28.0,10.4,29.88,NNW,338,7.4,7.4,47,0.00,,---,0.00,VWS V14.01,2013-03-12 07:18:00,
2013-03-12 01:33:00,27.9,10.3,29.88,WNW,292,9.8,9.8,47,0.00,,---,0.00,VWS V14.01,2013-03-12 07:33:00,
2013-03-12 01:48:00,27.5,9.9,29.88,NNW,338,9.6,9.8,47,0.00,,---,0.00,VWS V14.01,2013-03-12 07:48:00,
2013-03-12 02:03:00,27.1,9.6,29.88,NNW,338,7.4,9.6,47,0.00,,---,0.00,VWS V14.01,2013-03-12 08:03:00,
2013-03-12 02:18:00,27.3,9.3,29.91,NNW,338,7.8,7.8,46,0.00,,---,0.00,VWS V14.01,2013-03-12 08:18:00,
2013-03-12 02:33:00,27.3,9.3,29.91,North,0,9.0,9.0,46,0.00,,---,0.00,VWS V14.01,2013-03-12 08:33:00,
2013-03-12 02:48:00,27.0,8.9,29.91,NW,315,4.3,9.0,46,0.00,,---,0.00,VWS V14.01,2013-03-12 08:48:00,
2013-03-12 03:03:00,26.6,8.6,29.91,NNW,338,11.0,11.0,46,0.00,,---,0.00,VWS V14.01,2013-03-12 09:03:00,
2013-03-12 03:18:00,26.4,8.5,29.88,NW,315,3.1,11.0,46,0.00,,---,0.00,VWS V14.01,2013-03-12 09:18:00,
2013-03-12 03:33:00,26.6,8.6,29.88,NNW,338,4.3,4.3,46,0.00,,---,0.00,VWS V14.01,2013-03-12 09:33:00,
2013-03-12 03:48:00,26.8,8.8,29.88,North,0,3.8,4.3,46,0.00,,---,0.00,VWS V14.01,2013-03-12 09:48:00,
2013-03-12 04:03:00,26.4,8.5,29.91,NW,315,10.1,10.1,46,0.00,,---,0.00,VWS V14.01,2013-03-12 10:03:00,
2013-03-12 04:18:00,26.4,7.5,29.91,North,0,2.9,10.1,44,0.00,,---,0.00,VWS V14.01,2013-03-12 10:18:00,
2013-03-12 04:33:00,26.2,7.3,29.91,West,270,5.4,5.4,44,0.00,,---,0.00,VWS V14.01,2013-03-12 10:33:00,
2013-03-12 04:48:00,26.2,7.3,29.91,NNW,338,5.4,5.4,44,0.00,,---,0.00,VWS V14.01,2013-03-12 10:48:00,
2013-03-12 05:03:00,26.2,7.3,29.91,NNE,22,6.0,6.0,44,0.00,,---,0.00,VWS V14.01,2013-03-12 11:03:00,
2013-03-12 05:18:00,25.9,7.0,29.91,NW,315,9.2,9.2,44,0.00,,---,0.00,VWS V14.01,2013-03-12 11:18:00,
2013-03-12 05:33:00,25.9,7.0,29.91,NW,315,5.4,9.2,44,0.00,,---,0.00,VWS V14.01,2013-03-12 11:33:00,
2013-03-12 05:48:00,25.5,6.7,29.91,WNW,292,3.6,5.4,44,0.00,,---,0.00,VWS V14.01,2013-03-12 11:48:00,
2013-03-12 06:03:00,25.3,6.5,29.91,NNE,22,7.8,7.8,44,0.00,,---,0.00,VWS V14.01,2013-03-12 12:03:00,
2013-03-12 06:18:00,25.3,6.5,29.91,NW,315,6.0,7.8,44,0.00,,---,0.00,VWS V14.01,2013-03-12 12:18:00,
2013-03-12 06:33:00,25.3,6.5,29.91,NNW,338,7.6,7.6,44,0.00,,---,0.00,VWS V14.01,2013-03-12 12:33:00,
2013-03-12 06:48:00,25.5,6.7,29.91,NNW,338,3.4,7.6,44,0.00,,---,0.00,VWS V14.01,2013-03-12 12:48:00,
2013-03-12 07:03:00,25.9,7.0,29.91,NNW,338,3.4,3.4,44,0.00,,---,0.00,VWS V14.01,2013-03-12 13:03:00,
2013-03-12 07:18:00,27.5,7.9,29.94,NW,315,5.4,5.4,43,0.00,,---,0.00,VWS V14.01,2013-03-12 13:18:00,
2013-03-12 07:33:00,29.7,8.3,29.94,NNW,338,9.6,9.6,40,0.00,,---,0.00,VWS V14.01,2013-03-12 13:33:00,
2013-03-12 07:48:00,31.3,9.8,29.94,WNW,292,7.6,9.6,40,0.00,,---,0.00,VWS V14.01,2013-03-12 13:48:00,
2013-03-12 08:03:00,32.2,10.6,29.94,NNW,338,9.6,9.6,40,0.00,,---,0.00,VWS V14.01,2013-03-12 14:03:00,
2013-03-12 08:18:00,33.3,10.4,29.97,NW,315,7.4,9.6,38,0.00,,---,0.00,VWS V14.01,2013-03-12 14:18:00,
2013-03-12 08:33:00,34.0,10.5,29.97,WNW,292,6.3,7.4,37,0.00,,---,0.00,VWS V14.01,2013-03-12 14:33:00,
2013-03-12 08:48:00,34.3,10.8,29.97,North,0,9.8,9.8,37,0.00,,---,0.00,VWS V14.01,2013-03-12 14:48:00,
2013-03-12 09:03:00,35.6,11.9,29.97,WNW,292,12.3,12.3,37,0.00,,---,0.00,VWS V14.01,2013-03-12 15:03:00,
2013-03-12 09:18:00,36.3,12.6,29.94,NNW,338,9.6,12.3,37,0.00,,---,0.00,VWS V14.01,2013-03-12 15:18:00,
2013-03-12 09:33:00,37.6,13.1,29.97,NNW,338,12.3,12.3,36,0.00,,---,0.00,VWS V14.01,2013-03-12 15:33:00,
2013-03-12 09:48:00,38.3,13.7,29.97,North,0,11.0,12.3,36,0.00,,---,0.00,VWS V14.01,2013-03-12 15:48:00,
2013-03-12 10:03:00,38.7,14.0,29.97,NNW,338,10.1,11.0,36,0.00,,---,0.00,VWS V14.01,2013-03-12 16:03:00,
2013-03-12 10:18:00,39.7,15.0,29.97,NW,315,9.4,10.1,36,0.00,,---,0.00,VWS V14.01,2013-03-12 16:18:00,
2013-03-12 10:33:00,40.8,15.9,29.97,NW,315,6.0,9.4,36,0.00,,---,0.00,VWS V14.01,2013-03-12 16:33:00,
2013-03-12 10:48:00,41.9,14.9,29.97,North,0,3.6,6.0,33,0.00,,---,0.00,VWS V14.01,2013-03-12 16:48:00,
2013-03-12 11:03:00,43.0,15.9,29.94,NE,45,4.9,4.9,33,0.00,,---,0.00,VWS V14.01,2013-03-12 17:03:00,
2013-03-12 11:18:00,44.1,16.8,29.94,NNW,338,7.4,7.4,33,0.00,,---,0.00,VWS V14.01,2013-03-12 17:18:00,
2013-03-12 11:33:00,44.1,16.8,29.97,NNW,338,5.4,7.4,33,0.00,,---,0.00,VWS V14.01,2013-03-12 17:33:00,
2013-03-12 11:48:00,45.1,17.1,29.97,East,90,4.3,5.4,32,0.00,,---,0.00,VWS V14.01,2013-03-12 17:48:00,
2013-03-12 12:03:00,46.2,18.0,29.97,North,0,6.3,6.3,32,0.00,,---,0.00,VWS V14.01,2013-03-12 18:03:00,
2013-03-12 12:18:00,47.1,18.8,29.97,North,0,3.6,6.3,32,0.00,,---,0.00,VWS V14.01,2013-03-12 18:18:00,
2013-03-12 12:33:00,47.5,19.1,29.97,NW,315,2.0,3.6,32,0.00,,---,0.00,VWS V14.01,2013-03-12 18:33:00,
2013-03-12 12:48:00,47.3,19.0,29.97,NW,315,6.3,6.3,32,0.00,,---,0.00,VWS V14.01,2013-03-12 18:48:00,
2013-03-12 13:03:00,48.4,19.2,29.94,NNW,338,3.6,6.3,31,0.00,,---,0.00,VWS V14.01,2013-03-12 19:03:00,
2013-03-12 13:18:00,48.7,19.5,29.94,NE,45,4.9,4.9,31,0.00,,---,0.00,VWS V14.01,2013-03-12 19:18:00,
2013-03-12 13:33:00,48.9,19.6,29.94,NNE,22,8.1,8.1,31,0.00,,---,0.00,VWS V14.01,2013-03-12 19:33:00,
2013-03-12 13:48:00,49.3,19.9,29.94,NW,315,3.6,8.1,31,0.00,,---,0.00,VWS V14.01,2013-03-12 19:48:00,
2013-03-12 14:03:00,49.5,20.1,29.91,WNW,292,1.3,3.6,31,0.00,,---,0.00,VWS V14.01,2013-03-12 20:03:00,
2013-03-12 14:18:00,49.8,20.4,29.94,WNW,292,3.8,3.8,31,0.00,,---,0.00,VWS V14.01,2013-03-12 20:18:00,
2013-03-12 14:33:00,49.6,20.3,29.91,NNW,338,7.4,7.4,31,0.00,,---,0.00,VWS V14.01,2013-03-12 20:33:00,
2013-03-12 14:48:00,49.6,20.3,29.91,NW,315,3.8,7.4,31,0.00,,---,0.00,VWS V14.01,2013-03-12 20:48:00,
2013-03-12 15:03:00,48.2,19.0,29.91,North,0,7.2,7.2,31,0.00,,---,0.00,VWS V14.01,2013-03-12 21:03:00,
2013-03-12 15:18:00,48.7,19.5,29.91,NW,315,4.0,7.2,31,0.00,,---,0.00,VWS V14.01,2013-03-12 21:18:00,
2013-03-12 15:33:00,48.2,19.0,29.88,NW,315,4.3,4.3,31,0.00,,---,0.00,VWS V14.01,2013-03-12 21:33:00,
2013-03-12 15:48:00,47.1,18.8,29.91,West,270,4.0,4.3,32,0.00,,---,0.00,VWS V14.01,2013-03-12 21:48:00,
2013-03-12 16:03:00,47.1,18.8,29.91,East,90,2.5,4.0,32,0.00,,---,0.00,VWS V14.01,2013-03-12 22:03:00,
2013-03-12 16:18:00,46.9,18.6,29.91,North,0,3.1,3.1,32,0.00,,---,0.00,VWS V14.01,2013-03-12 22:18:00,
2013-03-12 16:33:00,44.6,16.6,29.91,NNW,338,3.4,3.4,32,0.00,,---,0.00,VWS V14.01,2013-03-12 22:33:00,
2013-03-12 16:48:00,42.4,15.4,29.91,NNW,338,2.5,3.4,33,0.00,,---,0.00,VWS V14.01,2013-03-12 22:48:00,
2013-03-12 17:03:00,41.0,14.1,29.88,NNW,338,2.0,2.5,33,0.00,,---,0.00,VWS V14.01,2013-03-12 23:03:00,
2013-03-12 17:18:00,42.6,15.6,29.91,NNW,338,2.2,2.2,33,0.00,,---,0.00,VWS V14.01,2013-03-12 23:18:00,
2013-03-12 17:33:00,37.6,11.8,29.91,ENE,68,1.1,2.2,34,0.00,,---,0.00,VWS V14.01,2013-03-12 23:33:00,
2013-03-12 17:48:00,34.9,10.0,29.91,NW,315,0.0,1.1,35,0.00,,---,0.00,VWS V14.01,2013-03-12 23:48:00,
2013-03-12 18:03:00,32.7,8.1,29.91,NW,315,0.0,0.0,35,0.00,,---,0.00,VWS V14.01,2013-03-13 00:03:00,
2013-03-12 18:18:00,30.9,6.5,29.91,NW,315,0.0,0.0,35,0.00,,---,0.00,VWS V14.01,2013-03-13 00:18:00,
2013-03-12 18:33:00,29.5,5.2,29.91,NW,315,0.0,0.0,35,0.00,,---,0.00,VWS V14.01,2013-03-13 00:33:00,
2013-03-12 18:48:00,28.0,4.5,29.91,NW,315,0.0,0.0,36,0.00,,---,0.00,VWS V14.01,2013-03-13 00:48:00,
2013-03-12 19:03:00,26.2,2.9,29.91,NW,315,0.0,0.0,36,0.00,,---,0.00,VWS V14.01,2013-03-13 01:03:00,
2013-03-12 19:18:00,25.5,2.3,29.91,NW,315,0.0,0.0,36,0.00,,---,0.00,VWS V14.01,2013-03-13 01:18:00,
2013-03-12 19:33:00,24.4,1.9,29.91,NW,315,0.0,0.0,37,0.00,,---,0.00,VWS V14.01,2013-03-13 01:33:00,
2013-03-12 19:48:00,23.5,1.1,29.91,NW,315,0.0,0.0,37,0.00,,---,0.00,VWS V14.01,2013-03-13 01:48:00,
2013-03-12 20:03:00,23.0,0.6,29.91,NW,315,0.0,0.0,37,0.00,,---,0.00,VWS V14.01,2013-03-13 02:03:00,
2013-03-12 20:18:00,22.6,0.3,29.91,NW,315,0.0,0.0,37,0.00,,---,0.00,VWS V14.01,2013-03-13 02:18:00,
2013-03-12 20:33:00,22.8,0.5,29.91,ESE,112,2.0,2.0,37,0.00,,---,0.00,VWS V14.01,2013-03-13 02:33:00,
2013-03-12 20:48:00,22.5,0.1,29.91,SE,135,0.0,2.0,37,0.00,,---,0.00,VWS V14.01,2013-03-13 02:48:00,
2013-03-12 21:03:00,22.8,2.1,29.91,SSE,158,0.0,0.0,40,0.00,,---,0.00,VWS V14.01,2013-03-13 03:03:00,
2013-03-12 21:18:00,23.7,2.4,29.91,South,180,0.9,0.9,39,0.00,,---,0.00,VWS V14.01,2013-03-13 03:18:00,
2013-03-12 21:33:00,25.7,4.2,29.91,South,180,2.0,2.0,39,0.00,,---,0.00,VWS V14.01,2013-03-13 03:33:00,
2013-03-12 21:48:00,27.0,6.4,29.91,South,180,2.2,2.2,41,0.00,,---,0.00,VWS V14.01,2013-03-13 03:48:00,
2013-03-12 22:03:00,28.4,6.1,29.91,South,180,3.8,3.8,38,0.00,,---,0.00,VWS V14.01,2013-03-13 04:03:00,
2013-03-12 22:18:00,28.6,6.2,29.91,South,180,2.7,3.8,38,0.00,,---,0.00,VWS V14.01,2013-03-13 04:18:00,
2013-03-12 22:33:00,28.2,5.9,29.91,SSE,158,2.0,2.7,38,0.00,,---,0.00,VWS V14.01,2013-03-13 04:33:00,
2013-03-12 22:48:00,27.3,5.1,29.88,South,180,3.4,3.4,38,0.00,,---,0.00,VWS V14.01,2013-03-13 04:48:00,
2013-03-12 23:03:00,26.4,4.8,29.91,SSE,158,2.5,3.4,39,0.00,,---,0.00,VWS V14.01,2013-03-13 05:03:00,
2013-03-12 23:18:00,26.4,5.9,29.91,South,180,3.1,3.1,41,0.00,,---,0.00,VWS V14.01,2013-03-13 05:18:00,
2013-03-12 23:33:00,27.0,6.4,29.91,ESE,112,2.9,3.1,41,0.00,,---,0.00,VWS V14.01,2013-03-13 05:33:00,
2013-03-12 23:48:00,29.1,7.8,29.91,South,180,6.9,6.9,40,0.00,,---,0.00,VWS V14.01,2013-03-13 05:48:00,